Time;durP1;ratioP1;P1;durP2;ratioP2;P2;SDS_P1;SDS_P2;PMS_P1;PMS_P2;Temp;Humidity;BMP_temperature;BMP_pressure;BME280_temperature;BME280_humidity;BME280_pressure;Samples;Min_cycle;Max_cycle;Signal;HPM_P1;HPM_P2
2022/10/24 00:00:22;;;;;;;;;1.00;0.00;;;;;18.66;57.59;100324.84;5077292;28;67805;-74
2022/10/24 00:02:47;;;;;;;;;2.25;0.00;;;;;18.63;58.01;100303.97;5059950;28;45416;-74
2022/10/24 00:05:13;;;;;;;;;1.00;0.00;;;;;18.63;58.13;100322.44;5077066;28;64560;-74
2022/10/24 00:07:39;;;;;;;;;2.75;0.00;;;;;18.61;57.95;100321.69;5059232;28;60855;-74
2022/10/24 00:10:05;;;;;;;;;1.50;0.00;;;;;18.61;57.89;100319.06;5060042;28;45379;-74
2022/10/24 00:12:30;;;;;;;;;1.00;0.00;;;;;18.59;58.01;100315.69;5059811;28;45583;-74
2022/10/24 00:14:56;;;;;;;;;0.00;0.00;;;;;18.57;58.56;100321.06;5076897;28;71710;-74
2022/10/24 00:17:21;;;;;;;;;1.75;0.00;;;;;18.53;58.73;100321.38;5077098;28;67462;-74
2022/10/24 00:19:46;;;;;;;;;1.50;0.00;;;;;18.52;58.47;100317.06;5077547;28;45400;-74
2022/10/24 00:22:12;;;;;;;;;2.00;0.00;;;;;18.51;58.48;100315.34;5059672;28;45355;-74
2022/10/24 00:24:37;;;;;;;;;1.00;0.00;;;;;18.50;58.59;100318.97;5058778;28;64130;-74
2022/10/24 00:27:03;;;;;;;;;2.25;1.00;;;;;18.48;58.78;100318.19;5077614;28;45297;-74
2022/10/24 00:29:28;;;;;;;;;3.50;0.00;;;;;18.43;59.30;100312.41;5077895;28;45338;-74
2022/10/24 00:31:54;;;;;;;;;2.50;0.00;;;;;18.42;58.81;100308.91;5077082;28;64405;-74
2022/10/24 00:34:19;;;;;;;;;2.50;0.00;;;;;18.39;59.10;100311.78;5076251;28;68597;-74
2022/10/24 00:36:44;;;;;;;;;1.00;0.00;;;;;18.37;59.42;100325.06;5076857;28;67700;-74
2022/10/24 00:39:11;;;;;;;;;2.00;1.00;;;;;18.35;59.54;100324.31;5076627;28;70398;-74
2022/10/24 00:41:41;;;;;;;;;0.75;0.50;;;;;18.32;59.51;100323.69;5077586;28;45390;-74
2022/10/24 00:44:18;;;;;;;;;0.00;0.00;;;;;18.28;59.71;100330.13;5077126;28;46359;-74
2022/10/24 00:46:47;;;;;;;;;2.50;0.00;;;;;18.27;60.00;100325.78;5077358;28;45280;-74
2022/10/24 00:49:15;;;;;;;;;0.00;0.00;;;;;18.23;59.92;100337.47;5077134;28;45326;-74
2022/10/24 00:51:41;;;;;;;;;0.00;0.00;;;;;18.19;59.89;100345.56;5059352;28;45524;-74
2022/10/24 00:54:09;;;;;;;;;2.75;0.00;;;;;18.18;60.19;100353.56;5058163;28;71261;-74
2022/10/24 00:56:38;;;;;;;;;0.00;0.00;;;;;18.16;59.86;100347.56;5058824;28;45488;-74
2022/10/24 00:59:06;;;;;;;;;0.75;0.75;;;;;18.16;60.71;100347.56;5059208;28;45334;-74
2022/10/24 01:01:33;;;;;;;;;0.25;0.00;;;;;18.12;59.83;100340.84;5058831;28;45378;-74
2022/10/24 01:03:58;;;;;;;;;1.25;0.00;;;;;18.10;60.24;100353.25;5059012;28;45305;-74
2022/10/24 01:06:36;;;;;;;;;1.75;0.00;;;;;18.07;60.37;100350.81;5058946;28;45433;-74
2022/10/24 01:09:19;;;;;;;;;1.50;0.00;;;;;18.04;60.06;100366.84;5077081;28;45465;-74
2022/10/24 01:12:15;;;;;;;;;2.00;0.00;;;;;17.97;60.10;100371.66;5077228;28;45499;-74
2022/10/24 01:14:43;;;;;;;;;3.00;0.00;;;;;17.89;61.20;100377.44;5077075;28;46424;-74
2022/10/24 01:17:16;;;;;;;;;0.00;0.00;;;;;17.84;60.78;100376.00;5076662;28;45741;-74
2022/10/24 01:19:48;;;;;;;;;0.75;0.00;;;;;17.84;61.17;100383.91;5038455;28;45369;-74
2022/10/24 01:22:27;;;;;;;;;1.50;0.00;;;;;17.83;61.16;100383.06;5056602;28;45327;-74
2022/10/24 01:25:05;;;;;;;;;3.00;0.00;;;;;17.85;61.40;100389.13;5055195;28;46530;-74
2022/10/24 01:27:30;;;;;;;;;1.00;1.00;;;;;17.85;60.66;100383.84;5055252;28;45801;-74
2022/10/24 01:30:05;;;;;;;;;3.25;0.00;;;;;17.85;60.76;100385.63;5056791;28;45371;-74
2022/10/24 01:32:56;;;;;;;;;2.00;0.00;;;;;17.81;60.89;100377.03;5054900;28;45427;-74
2022/10/24 01:35:46;;;;;;;;;3.00;0.00;;;;;17.78;61.41;100393.06;5055146;28;46204;-74
2022/10/24 01:38:30;;;;;;;;;0.00;0.00;;;;;17.72;61.75;100385.56;5055012;28;45715;-74
2022/10/24 01:41:03;;;;;;;;;2.00;0.00;;;;;17.63;62.33;100391.41;5056461;28;45311;-74
2022/10/24 01:43:43;;;;;;;;;1.00;0.00;;;;;17.56;62.25;100393.56;5054978;28;45525;-74
2022/10/24 01:46:12;;;;;;;;;1.00;0.00;;;;;17.52;62.26;100392.09;5054662;28;45462;-74
2022/10/24 01:48:42;;;;;;;;;1.00;0.00;;;;;17.50;62.66;100388.72;5054954;28;45488;-74
2022/10/24 01:51:08;;;;;;;;;2.50;0.00;;;;;17.45;62.92;100383.72;5056335;28;45326;-74
2022/10/24 01:53:34;;;;;;;;;0.00;0.00;;;;;17.44;62.61;100381.19;5055241;28;69244;-75
2022/10/24 01:56:00;;;;;;;;;0.00;0.00;;;;;17.42;62.66;100376.88;5054769;28;46168;-74
2022/10/24 01:58:26;;;;;;;;;1.00;0.75;;;;;17.43;62.83;100393.50;5056144;28;45521;-75
2022/10/24 02:00:55;;;;;;;;;0.50;0.50;;;;;17.40;62.74;100381.41;5055299;28;53250;-74
2022/10/24 02:03:34;;;;;;;;;0.00;0.00;;;;;17.37;63.37;100381.59;5054989;28;45429;-74
2022/10/24 02:06:08;;;;;;;;;4.00;0.00;;;;;17.34;63.23;100373.03;5054702;28;47341;-74
2022/10/24 02:08:39;;;;;;;;;3.50;1.00;;;;;17.30;63.59;100371.56;5053621;28;45335;-74
2022/10/24 02:11:06;;;;;;;;;1.25;0.00;;;;;17.30;63.80;100368.91;5054802;28;45621;-74
2022/10/24 02:13:38;;;;;;;;;0.00;0.00;;;;;17.29;63.10;100368.09;5054560;28;45518;-74
2022/10/24 02:16:03;;;;;;;;;0.00;0.00;;;;;17.28;63.22;100363.75;5054307;28;46164;-74
2022/10/24 02:18:29;;;;;;;;;0.00;0.00;;;;;17.26;63.69;100360.38;5054901;28;45458;-73
2022/10/24 02:21:02;;;;;;;;;0.00;0.00;;;;;17.26;63.61;100354.28;5057627;28;49869;-74
2022/10/24 02:23:42;;;;;;;;;2.25;1.50;;;;;17.24;63.35;100345.63;5076112;28;45445;-74
2022/10/24 02:26:12;;;;;;;;;0.75;0.00;;;;;17.20;64.13;100353.72;5057868;28;46494;-74
2022/10/24 02:28:42;;;;;;;;;2.00;0.00;;;;;17.17;63.76;100356.53;5057469;28;45705;-74
2022/10/24 02:31:15;;;;;;;;;0.00;0.00;;;;;17.16;64.02;100346.09;5057856;28;45319;-74
2022/10/24 02:33:41;;;;;;;;;2.50;0.00;;;;;17.15;63.96;100347.06;5057764;28;45390;-74
2022/10/24 02:36:09;;;;;;;;;0.00;0.00;;;;;17.13;64.45;100347.16;5056747;28;72897;-74
2022/10/24 02:38:37;;;;;;;;;3.00;0.00;;;;;17.13;64.42;100336.63;5057607;28;45401;-74
2022/10/24 02:41:07;;;;;;;;;1.75;1.00;;;;;17.11;64.71;100333.25;5075854;28;45389;-74
2022/10/24 02:43:33;;;;;;;;;4.50;0.00;;;;;17.12;64.58;100334.09;5057361;28;45531;-74
2022/10/24 02:45:58;;;;;;;;;1.50;0.00;;;;;17.09;64.84;100322.00;5057531;28;45393;-74
2022/10/24 02:48:28;;;;;;;;;2.00;0.00;;;;;17.08;64.51;100330.81;5074682;28;69594;-74
2022/10/24 02:50:53;;;;;;;;;3.25;0.00;;;;;17.03;65.14;100323.22;5057700;28;45396;-74
2022/10/24 02:53:20;;;;;;;;;2.00;1.00;;;;;17.02;64.47;100329.41;5075661;28;45378;-74
2022/10/24 02:55:46;;;;;;;;;0.00;0.00;;;;;17.00;65.61;100341.81;5057325;28;45452;-74
2022/10/24 02:58:11;;;;;;;;;0.00;0.00;;;;;16.99;65.62;100332.25;5056960;28;45421;-74
2022/10/24 03:00:37;;;;;;;;;3.00;0.00;;;;;17.00;65.17;100340.97;5057315;28;48111;-74
2022/10/24 03:03:02;;;;;;;;;0.25;0.25;;;;;16.99;65.31;100344.53;5075515;28;45525;-74
2022/10/24 03:05:28;;;;;;;;;3.25;0.25;;;;;16.96;65.08;100337.69;5075259;28;47356;-74
2022/10/24 03:07:53;;;;;;;;;1.00;0.00;;;;;16.94;65.64;100347.44;5057208;28;45454;-74
2022/10/24 03:10:18;;;;;;;;;2.00;0.25;;;;;16.93;65.54;100350.16;5074787;28;61769;-74
2022/10/24 03:12:44;;;;;;;;;2.50;0.00;;;;;16.93;65.58;100351.00;5075014;28;45453;-74
2022/10/24 03:15:10;;;;;;;;;0.00;0.00;;;;;16.91;65.63;100355.50;5074283;28;75562;-74
2022/10/24 03:17:35;;;;;;;;;6.75;0.00;;;;;16.92;65.71;100356.34;5075411;28;45392;-74
2022/10/24 03:20:00;;;;;;;;;0.00;0.00;;;;;16.91;65.83;100357.31;5075200;28;62456;-74
2022/10/24 03:22:26;;;;;;;;;2.00;0.00;;;;;16.90;65.49;100363.50;5079000;28;45395;-75
2022/10/24 03:24:51;;;;;;;;;0.00;0.00;;;;;16.89;65.28;100356.56;5077469;28;75575;-74
2022/10/24 03:27:16;;;;;;;;;3.25;0.50;;;;;16.87;65.81;100361.91;5077595;28;64033;-74
2022/10/24 03:29:42;;;;;;;;;4.00;0.25;;;;;16.85;66.00;100361.16;5078911;28;45331;-74
2022/10/24 03:32:07;;;;;;;;;0.75;0.75;;;;;16.85;65.98;100360.31;5077633;28;68289;-74
2022/10/24 03:34:32;;;;;;;;;3.00;1.00;;;;;16.83;65.68;100350.72;5077635;28;73567;-74
2022/10/24 03:36:58;;;;;;;;;1.50;0.00;;;;;16.83;65.51;100356.00;5078335;28;45449;-74
2022/10/24 03:39:23;;;;;;;;;3.25;0.25;;;;;16.83;65.67;100361.25;5077658;28;69147;-74
2022/10/24 03:41:48;;;;;;;;;0.25;0.25;;;;;16.84;65.59;100369.97;5077271;28;70324;-74
2022/10/24 03:44:14;;;;;;;;;0.00;0.00;;;;;16.81;65.99;100378.88;5077307;28;69667;-74
2022/10/24 03:46:39;;;;;;;;;3.50;0.00;;;;;16.80;66.00;100369.28;5077689;28;68285;-74
2022/10/24 03:49:04;;;;;;;;;0.75;0.00;;;;;16.80;66.08;100369.28;5060301;28;45499;-74
2022/10/24 03:51:30;;;;;;;;;2.25;0.75;;;;;16.80;66.46;100381.59;5077420;28;70311;-74
2022/10/24 03:53:55;;;;;;;;;4.00;1.00;;;;;16.78;65.85;100373.78;5077456;28;68278;-74
2022/10/24 03:56:20;;;;;;;;;1.50;1.00;;;;;16.76;66.59;100377.47;5059745;28;45427;-75
2022/10/24 03:58:46;;;;;;;;;6.75;1.00;;;;;16.76;66.66;100395.84;5077921;28;55030;-74
2022/10/24 04:01:16;;;;;;;;;2.25;0.00;;;;;16.75;65.91;100399.41;5077558;28;67516;-74
2022/10/24 04:03:42;;;;;;;;;4.50;1.00;;;;;16.73;66.15;100411.78;5078057;28;47187;-74
2022/10/24 04:06:07;;;;;;;;;3.25;0.75;;;;;16.71;66.18;100406.63;5060003;28;45458;-74
2022/10/24 04:08:33;;;;;;;;;3.00;1.00;;;;;16.72;65.78;100410.97;5077259;28;65310;-74
2022/10/24 04:10:58;;;;;;;;;3.25;1.00;;;;;16.71;66.21;100414.50;5058574;28;70229;-74
2022/10/24 04:13:23;;;;;;;;;2.00;0.75;;;;;16.72;66.53;100423.25;5076895;28;71658;-74
2022/10/24 04:15:49;;;;;;;;;3.75;2.00;;;;;16.71;66.88;100425.03;5078034;28;45348;-74
2022/10/24 04:18:14;;;;;;;;;6.25;1.50;;;;;16.69;66.69;100426.91;5059867;28;45413;-74
2022/10/24 04:20:39;;;;;;;;;6.75;1.00;;;;;16.70;66.57;100433.88;5076949;28;65392;-74
2022/10/24 04:23:05;;;;;;;;;0.75;0.50;;;;;16.71;66.64;100425.03;5077963;28;46318;-74
2022/10/24 04:25:30;;;;;;;;;2.00;0.25;;;;;16.70;66.91;100436.50;5059002;28;51457;-74
2022/10/24 04:27:55;;;;;;;;;2.75;0.50;;;;;16.67;66.95;100431.41;5077911;28;45283;-74
2022/10/24 04:30:21;;;;;;;;;2.00;0.75;;;;;16.67;67.16;100431.41;5077020;28;62974;-74
2022/10/24 04:32:46;;;;;;;;;1.00;1.00;;;;;16.65;67.30;100449.03;5076745;28;46309;-74
2022/10/24 04:35:13;;;;;;;;;2.00;1.00;;;;;16.62;66.97;100436.94;5059224;28;45403;-74
2022/10/24 04:37:38;;;;;;;;;5.00;1.00;;;;;16.63;67.00;100441.25;5077621;28;45533;-74
2022/10/24 04:40:04;;;;;;;;;2.00;0.00;;;;;16.62;66.99;100442.19;5077391;28;45357;-74
2022/10/24 04:42:29;;;;;;;;;5.25;0.75;;;;;16.61;67.05;100440.50;5059195;28;46041;-74
2022/10/24 04:44:54;;;;;;;;;2.75;1.00;;;;;16.61;67.05;100435.25;5076400;28;66585;-75
2022/10/24 04:47:20;;;;;;;;;2.50;1.00;;;;;16.60;66.82;100451.97;5077032;28;55302;-74
2022/10/24 04:49:45;;;;;;;;;2.50;1.00;;;;;16.60;66.52;100459.84;5076502;28;69437;-74
2022/10/24 04:52:10;;;;;;;;;3.00;0.25;;;;;16.59;66.45;100470.44;5042175;28;48276;-74
2022/10/24 04:54:36;;;;;;;;;4.75;1.00;;;;;16.58;66.86;100468.72;5077093;28;45374;-74
2022/10/24 04:57:01;;;;;;;;;6.25;2.00;;;;;16.57;66.72;100459.19;5077320;28;45936;-74
2022/10/24 04:59:26;;;;;;;;;2.00;1.00;;;;;16.54;66.84;100461.97;5076407;28;66989;-74
2022/10/24 05:01:53;;;;;;;;;6.50;1.25;;;;;16.54;67.14;100483.00;5076989;28;46903;-74
2022/10/24 05:04:19;;;;;;;;;1.50;1.00;;;;;16.53;67.10;100482.16;5077130;28;45446;-74
2022/10/24 05:06:45;;;;;;;;;4.50;1.00;;;;;16.54;67.22;100498.75;5077214;28;45409;-74
2022/10/24 05:09:10;;;;;;;;;3.25;0.75;;;;;16.54;67.35;100504.00;5076822;28;45385;-75
2022/10/24 05:11:36;;;;;;;;;2.00;1.00;;;;;16.51;67.39;100504.16;5076927;28;46100;-74
2022/10/24 05:14:01;;;;;;;;;2.25;1.00;;;;;16.50;66.96;100507.75;5076860;28;45349;-74
2022/10/24 05:16:26;;;;;;;;;1.75;0.75;;;;;16.48;67.21;100507.00;5076308;28;66832;-74
2022/10/24 05:18:52;;;;;;;;;0.00;0.00;;;;;16.48;67.23;100501.75;5075944;28;69494;-74
2022/10/24 05:21:17;;;;;;;;;3.00;1.00;;;;;16.47;67.49;100515.81;5075930;28;72790;-74
2022/10/24 05:23:42;;;;;;;;;2.25;1.00;;;;;16.45;67.34;100514.13;5057787;28;61443;-75
2022/10/24 05:26:08;;;;;;;;;1.00;0.00;;;;;16.43;67.86;100518.59;5076843;28;45329;-74
2022/10/24 05:28:33;;;;;;;;;2.00;0.75;;;;;16.41;67.67;100519.63;5057730;28;67268;-74
2022/10/24 05:30:59;;;;;;;;;1.50;0.00;;;;;16.39;67.83;100522.34;5058479;28;46168;-74
2022/10/24 05:33:24;;;;;;;;;2.00;0.25;;;;;16.36;67.86;100521.66;5075394;28;74602;-74
2022/10/24 05:35:50;;;;;;;;;3.50;1.00;;;;;16.34;68.10;100536.66;5076825;28;45232;-74
2022/10/24 05:38:16;;;;;;;;;7.00;2.25;;;;;16.32;68.39;100533.28;5058167;28;45290;-74
2022/10/24 05:40:41;;;;;;;;;2.00;0.75;;;;;16.30;68.73;100533.34;5058290;28;46076;-74
2022/10/24 05:43:07;;;;;;;;;1.75;0.25;;;;;16.30;68.75;100535.16;5076361;28;45477;-74
2022/10/24 05:45:32;;;;;;;;;4.50;1.00;;;;;16.30;68.03;100533.34;5075646;28;68819;-74
2022/10/24 05:47:58;;;;;;;;;1.75;1.75;;;;;16.31;68.80;100523.72;5057480;28;67443;-74
2022/10/24 05:50:23;;;;;;;;;2.00;0.00;;;;;16.31;68.68;100527.19;5058268;28;46048;-74
2022/10/24 05:52:48;;;;;;;;;2.00;1.25;;;;;16.33;68.99;100538.44;5040272;28;62453;-74
2022/10/24 05:55:14;;;;;;;;;0.50;0.50;;;;;16.32;68.90;100533.28;5057547;28;64940;-74
2022/10/24 05:57:39;;;;;;;;;1.50;0.00;;;;;16.30;69.07;100538.59;5076498;28;45374;-74
2022/10/24 06:00:07;;;;;;;;;2.50;1.00;;;;;16.31;68.94;100531.59;5076223;28;46602;-74
2022/10/24 06:02:32;;;;;;;;;2.25;1.00;;;;;16.31;69.05;100539.47;5076145;28;45645;-74
2022/10/24 06:04:58;;;;;;;;;5.00;0.50;;;;;16.32;69.30;100533.28;5057931;28;46189;-74
2022/10/24 06:07:23;;;;;;;;;5.00;1.00;;;;;16.32;68.90;100534.13;5057746;28;45432;-74
2022/10/24 06:09:49;;;;;;;;;1.50;1.25;;;;;16.31;68.97;100529.81;5076220;28;45493;-74
2022/10/24 06:12:14;;;;;;;;;3.75;0.25;;;;;16.30;68.98;100537.78;5075068;28;71070;-74
2022/10/24 06:14:40;;;;;;;;;5.00;0.50;;;;;16.30;69.26;100532.53;5075123;28;69311;-74
2022/10/24 06:17:07;;;;;;;;;3.00;2.50;;;;;16.31;69.24;100531.59;5057859;28;45445;-74
2022/10/24 06:19:34;;;;;;;;;4.00;0.75;;;;;16.32;69.11;100533.28;5075494;28;46930;-74
2022/10/24 06:21:59;;;;;;;;;4.00;1.00;;;;;16.35;69.61;100546.25;5057586;28;45718;-74
2022/10/24 06:24:26;;;;;;;;;1.00;0.50;;;;;16.35;69.18;100539.19;5055902;28;45388;-74
2022/10/24 06:26:51;;;;;;;;;2.00;1.00;;;;;16.34;69.36;100539.28;5054875;28;67142;-74
2022/10/24 06:29:17;;;;;;;;;3.25;1.00;;;;;16.32;69.32;100536.75;5054578;28;74908;-74
2022/10/24 06:31:42;;;;;;;;;2.50;1.00;;;;;16.32;69.33;100536.75;5054815;28;65317;-74
2022/10/24 06:34:07;;;;;;;;;0.25;0.25;;;;;16.32;69.44;100543.78;5055109;28;52488;-74
2022/10/24 06:36:34;;;;;;;;;6.00;2.00;;;;;16.31;69.05;100555.22;5054654;28;57785;-74
2022/10/24 06:38:59;;;;;;;;;4.75;1.00;;;;;16.33;68.72;100563.88;5055355;28;47044;-74
2022/10/24 06:41:27;;;;;;;;;4.00;1.00;;;;;16.33;68.56;100564.72;5055434;28;47591;-74
2022/10/24 06:43:55;;;;;;;;;1.50;1.00;;;;;16.33;68.87;100556.00;5055347;28;45410;-74
2022/10/24 06:46:22;;;;;;;;;1.00;1.00;;;;;16.32;68.91;100576.13;5055529;28;45687;-74
2022/10/24 06:48:48;;;;;;;;;2.50;1.25;;;;;16.31;68.72;100579.72;5055332;28;46053;-74
2022/10/24 06:51:15;;;;;;;;;5.25;1.00;;;;;16.32;68.67;100584.00;5054992;28;45746;-74
2022/10/24 06:53:40;;;;;;;;;5.00;2.00;;;;;16.33;68.30;100584.88;5055525;28;45333;-74
2022/10/24 06:56:06;;;;;;;;;4.75;1.00;;;;;16.31;68.32;100590.22;5057711;28;45445;-74
2022/10/24 06:58:34;;;;;;;;;5.00;1.75;;;;;16.32;68.28;100596.31;5058832;28;47098;-74
2022/10/24 07:00:59;;;;;;;;;1.75;0.75;;;;;16.35;68.75;100597.00;5040905;28;45750;-74
2022/10/24 07:03:25;;;;;;;;;5.50;2.00;;;;;16.35;68.12;100598.78;5058360;28;57714;-74
2022/10/24 07:05:50;;;;;;;;;3.25;2.00;;;;;16.33;67.91;100613.78;5040438;28;48027;-74
2022/10/24 07:08:15;;;;;;;;;2.00;0.00;;;;;16.32;68.17;100623.41;5057885;28;67801;-74
2022/10/24 07:10:41;;;;;;;;;5.25;2.00;;;;;16.39;68.23;100629.19;5040266;28;61240;-74
2022/10/24 07:13:06;;;;;;;;;6.00;2.00;;;;;16.47;68.21;100626.97;5058374;28;54850;-74
2022/10/24 07:15:31;;;;;;;;;5.00;1.25;;;;;16.56;68.40;100630.88;5058711;28;45444;-74
2022/10/24 07:17:57;;;;;;;;;3.75;1.00;;;;;16.59;67.75;100630.72;5057762;28;71393;-74
2022/10/24 07:20:22;;;;;;;;;1.50;1.00;;;;;16.63;67.82;100629.63;5057172;28;72072;-74
2022/10/24 07:22:47;;;;;;;;;3.75;1.75;;;;;16.66;67.36;100634.72;5058904;28;45228;-74
2022/10/24 07:25:13;;;;;;;;;3.00;0.00;;;;;16.70;67.24;100632.75;5058787;28;45413;-74
2022/10/24 07:27:38;;;;;;;;;5.00;1.00;;;;;16.73;67.35;100637.81;5040503;28;45438;-74
2022/10/24 07:30:06;;;;;;;;;1.00;1.00;;;;;16.76;67.38;100635.88;5057594;28;72332;-74
2022/10/24 07:32:31;;;;;;;;;7.25;1.00;;;;;16.78;67.20;100622.66;5058655;28;45425;-74
2022/10/24 07:34:57;;;;;;;;;5.00;1.00;;;;;16.72;66.88;100629.09;5057888;28;45587;-74
2022/10/24 07:37:22;;;;;;;;;2.00;1.00;;;;;16.68;66.68;100638.09;5058004;28;58863;-74
2022/10/24 07:39:47;;;;;;;;;4.00;0.75;;;;;16.64;66.93;100645.31;5058478;28;45440;-74
2022/10/24 07:42:14;;;;;;;;;3.75;1.00;;;;;16.60;67.36;100633.28;5040297;28;45432;-75
2022/10/24 07:44:39;;;;;;;;;2.25;2.00;;;;;16.63;67.19;100650.63;5058244;28;45405;-75
2022/10/24 07:47:07;;;;;;;;;1.00;1.00;;;;;16.67;67.43;100654.78;5057237;28;70878;-74
2022/10/24 07:49:33;;;;;;;;;1.50;1.00;;;;;16.71;67.54;100652.84;5057909;28;45441;-74
2022/10/24 07:51:58;;;;;;;;;6.25;1.00;;;;;16.76;67.18;100654.28;5058303;28;45303;-75
2022/10/24 07:54:25;;;;;;;;;3.50;0.00;;;;;16.78;67.16;100654.19;5058287;28;46027;-74
2022/10/24 07:56:50;;;;;;;;;6.25;1.00;;;;;16.77;67.22;100663.88;5058060;28;46370;-75
2022/10/24 07:59:16;;;;;;;;;1.75;0.00;;;;;16.77;67.30;100660.38;5040079;28;45437;-75
2022/10/24 08:01:41;;;;;;;;;3.50;1.00;;;;;16.78;67.61;100662.91;5057801;28;52838;-75
2022/10/24 08:04:06;;;;;;;;;3.00;1.00;;;;;16.80;67.55;100661.03;5056850;28;70488;-75
2022/10/24 08:06:32;;;;;;;;;3.00;2.75;;;;;16.85;67.05;100667.88;5056323;28;57087;-75
2022/10/24 08:08:57;;;;;;;;;5.00;1.00;;;;;16.86;67.30;100664.31;5056872;28;74156;-74
2022/10/24 08:11:25;;;;;;;;;3.50;1.00;;;;;16.84;66.93;100672.25;5057200;28;66521;-75
2022/10/24 08:13:51;;;;;;;;;2.75;1.00;;;;;16.85;67.28;100681.88;5057871;28;45685;-75
2022/10/24 08:16:22;;;;;;;;;1.50;0.75;;;;;16.85;67.21;100671.34;5057688;28;47215;-75
2022/10/24 08:18:48;;;;;;;;;2.00;2.00;;;;;16.90;67.48;100669.31;5057182;28;45330;-74
2022/10/24 08:21:15;;;;;;;;;3.25;1.00;;;;;16.94;67.54;100676.09;5057986;28;45434;-75
2022/10/24 08:23:43;;;;;;;;;1.50;1.00;;;;;16.95;67.31;100669.88;5057944;28;45405;-74
2022/10/24 08:26:12;;;;;;;;;4.00;1.75;;;;;16.98;67.63;100684.66;5039434;28;45391;-74
2022/10/24 08:28:37;;;;;;;;;2.50;1.00;;;;;17.02;66.69;100683.53;5039594;28;46423;-75
2022/10/24 08:31:09;;;;;;;;;4.25;1.00;;;;;17.05;67.00;100688.63;5039370;28;45401;-75
2022/10/24 08:33:34;;;;;;;;;4.50;1.75;;;;;17.14;66.69;100674.97;5039572;28;45752;-75
2022/10/24 08:36:02;;;;;;;;;2.00;1.00;;;;;17.23;66.63;100697.22;5057466;28;45391;-74
2022/10/24 08:38:28;;;;;;;;;4.00;1.00;;;;;17.27;66.52;100690.00;5057608;28;45363;-75
2022/10/24 08:40:54;;;;;;;;;3.00;1.00;;;;;17.31;66.72;100712.56;5056378;28;45373;-75
2022/10/24 08:43:20;;;;;;;;;3.75;1.00;;;;;17.36;66.58;100702.63;5039376;28;45477;-75
2022/10/24 08:46:01;;;;;;;;;3.75;1.75;;;;;17.42;66.43;100713.66;5056934;28;46206;-75
2022/10/24 08:48:39;;;;;;;;;1.50;0.50;;;;;17.44;65.90;100702.19;5057492;28;45381;-75
2022/10/24 08:51:16;;;;;;;;;5.75;2.00;;;;;17.44;65.96;100710.09;5039345;28;45512;-75
2022/10/24 08:53:42;;;;;;;;;4.25;1.00;;;;;17.48;66.11;100714.25;5039451;28;45455;-75
2022/10/24 08:56:09;;;;;;;;;3.00;2.00;;;;;17.58;65.50;100704.88;5038931;28;53205;-74
2022/10/24 08:58:38;;;;;;;;;4.50;1.00;;;;;17.67;65.52;100706.97;5038130;28;72054;-75
2022/10/24 09:01:10;;;;;;;;;4.50;1.75;;;;;17.80;65.27;100720.25;5038951;28;45476;-75
2022/10/24 09:03:42;;;;;;;;;5.00;1.00;;;;;17.88;64.74;100731.19;5038982;28;45507;-74
2022/10/24 09:06:24;;;;;;;;;3.00;0.00;;;;;18.01;64.95;100715.50;5039125;28;46460;-75
2022/10/24 09:08:53;;;;;;;;;1.75;1.00;;;;;18.16;64.16;100727.75;5022294;28;45743;-75
2022/10/24 09:11:30;;;;;;;;;3.50;0.00;;;;;18.22;63.58;100734.44;5039193;28;45426;-75
2022/10/24 09:13:59;;;;;;;;;5.50;1.75;;;;;18.19;63.48;100742.53;5039124;28;45308;-75
2022/10/24 09:16:26;;;;;;;;;4.75;0.25;;;;;18.13;63.76;100732.38;5038483;28;46838;-75
2022/10/24 09:18:53;;;;;;;;;5.50;1.00;;;;;18.11;64.00;100721.91;5056195;28;45347;-74
2022/10/24 09:21:29;;;;;;;;;3.50;1.75;;;;;18.21;63.69;100724.00;5038981;28;45411;-74
2022/10/24 09:23:55;;;;;;;;;1.00;1.00;;;;;18.33;63.69;100721.47;5056221;28;45584;-75
2022/10/24 09:26:27;;;;;;;;;2.75;2.00;;;;;18.35;62.71;100732.75;5056492;28;46506;-75
2022/10/24 09:28:55;;;;;;;;;3.25;1.50;;;;;18.34;62.65;100752.13;5038669;28;45395;-75
2022/10/24 09:31:23;;;;;;;;;3.25;1.00;;;;;18.31;62.57;100740.91;5039080;28;45325;-74
2022/10/24 09:33:50;;;;;;;;;3.00;1.25;;;;;18.34;62.70;100738.94;5056584;28;45320;-74
2022/10/24 09:36:18;;;;;;;;;1.00;1.00;;;;;18.44;62.84;100746.28;5056403;28;47037;-75
2022/10/24 09:38:44;;;;;;;;;6.50;2.50;;;;;18.53;62.86;100749.19;5056495;28;45320;-75
2022/10/24 09:41:12;;;;;;;;;1.00;1.00;;;;;18.64;62.48;100747.69;5038701;28;45312;-75
2022/10/24 09:43:38;;;;;;;;;4.25;1.25;;;;;18.68;61.49;100747.38;5055997;28;45324;-75
2022/10/24 09:46:23;;;;;;;;;1.00;1.00;;;;;18.67;61.21;100753.63;5038427;28;46397;-75
2022/10/24 09:48:48;;;;;;;;;2.25;0.00;;;;;18.65;60.93;100762.56;5038391;28;45697;-75
2022/10/24 09:51:36;;;;;;;;;2.75;1.00;;;;;18.75;61.45;100753.13;5056479;28;45296;-75
2022/10/24 09:54:17;;;;;;;;;2.25;1.75;;;;;18.85;61.06;100759.56;5038457;28;45589;-75
2022/10/24 09:56:44;;;;;;;;;2.00;0.50;;;;;18.88;61.34;100759.34;5056236;28;47006;-74
2022/10/24 09:59:31;;;;;;;;;3.50;1.00;;;;;18.86;61.04;100763.03;5055814;28;45663;-75
2022/10/24 10:02:19;;;;;;;;;4.00;1.00;;;;;18.72;61.61;100772.63;5056431;28;45414;-75
2022/10/24 10:05:06;;;;;;;;;3.25;2.00;;;;;18.67;61.68;100763.31;5038318;28;45346;-75
2022/10/24 10:07:31;;;;;;;;;2.75;1.00;;;;;18.69;61.69;100766.72;5055580;28;45323;-75
2022/10/24 10:09:59;;;;;;;;;2.00;0.00;;;;;18.73;61.40;100773.47;5056125;28;45360;-74
2022/10/24 10:12:36;;;;;;;;;5.00;1.25;;;;;18.68;61.57;100778.19;5037765;28;45386;-74
2022/10/24 10:15:29;;;;;;;;;1.00;1.00;;;;;18.67;61.67;100789.69;5038448;28;45463;-74
2022/10/24 10:18:27;;;;;;;;;3.00;1.00;;;;;18.74;62.16;100783.94;5052806;28;46412;-74
2022/10/24 10:21:06;;;;;;;;;1.50;1.25;;;;;18.92;61.63;100778.47;5037893;28;45418;-75
2022/10/24 10:23:35;;;;;;;;;3.50;1.00;;;;;19.09;61.77;100793.22;5038061;28;45257;-75
2022/10/24 10:26:06;;;;;;;;;4.00;1.00;;;;;19.10;61.12;100789.66;5055940;28;45511;-74
2022/10/24 10:28:42;;;;;;;;;4.00;1.00;;;;;19.02;61.10;100784.88;5055392;28;47301;-75
2022/10/24 10:31:08;;;;;;;;;4.75;1.00;;;;;18.98;61.48;100777.22;5037134;28;45706;-75
2022/10/24 10:33:43;;;;;;;;;1.00;1.00;;;;;19.04;61.58;100774.22;5055724;28;45427;-74
2022/10/24 10:36:18;;;;;;;;;1.00;1.00;;;;;19.15;61.70;100777.84;5055870;28;45358;-75
2022/10/24 10:38:54;;;;;;;;;1.75;1.00;;;;;19.40;61.35;100800.00;5037680;28;46338;-75
2022/10/24 10:41:37;;;;;;;;;4.75;2.75;;;;;19.45;60.64;100790.00;5037793;28;45446;-74
2022/10/24 10:44:33;;;;;;;;;4.00;1.00;;;;;19.57;60.16;100792.78;5055615;28;45404;-75
2022/10/24 10:47:05;;;;;;;;;0.50;0.50;;;;;19.75;60.14;100793.41;5055652;28;45354;-75
2022/10/24 10:49:34;;;;;;;;;2.25;1.00;;;;;19.85;59.71;100779.44;5037501;28;45446;-75
2022/10/24 10:52:29;;;;;;;;;1.00;1.00;;;;;19.85;59.37;100791.81;5054106;28;45707;-75
2022/10/24 10:55:00;;;;;;;;;3.00;1.00;;;;;19.96;59.33;100799.03;5053518;28;45371;-75
2022/10/24 10:57:51;;;;;;;;;2.00;1.00;;;;;20.18;58.41;100796.63;5055205;28;45421;-75
2022/10/24 11:00:38;;;;;;;;;3.50;0.25;;;;;20.31;57.96;100800.09;4993270;28;46291;-75
2022/10/24 11:03:19;;;;;;;;;2.00;1.00;;;;;20.31;57.79;100796.63;4993324;28;45608;-75
2022/10/24 11:06:04;;;;;;;;;5.75;1.50;;;;;20.24;57.70;100819.97;4993462;28;45457;-74
2022/10/24 11:08:38;;;;;;;;;2.75;2.00;;;;;20.16;57.61;100792.41;4977158;28;45570;-75
2022/10/24 11:11:10;;;;;;;;;3.75;1.00;;;;;20.10;57.01;100801.59;4992869;28;47188;-75
2022/10/24 11:13:42;;;;;;;;;1.00;1.00;;;;;20.14;57.35;100784.56;4976903;28;45657;-75
2022/10/24 11:16:14;;;;;;;;;4.25;2.25;;;;;20.47;57.00;100789.34;4976794;28;45432;-75
2022/10/24 11:18:43;;;;;;;;;1.75;1.00;;;;;21.61;55.95;100780.34;4993110;28;45396;-75
2022/10/24 11:21:12;;;;;;;;;2.75;1.00;;;;;22.02;53.36;100786.97;4993257;28;45518;-74
2022/10/24 11:23:53;;;;;;;;;0.00;0.00;;;;;21.62;53.06;100787.34;4993145;28;45788;-75
2022/10/24 11:26:25;;;;;;;;;2.00;2.00;;;;;21.93;53.42;100787.66;4976510;28;45333;-75
2022/10/24 11:28:56;;;;;;;;;1.75;1.50;;;;;23.64;50.09;100771.50;4976693;28;45638;-75
2022/10/24 11:31:28;;;;;;;;;5.25;1.50;;;;;24.52;48.22;100772.91;4976593;28;46065;-75